KPUB/PUB METAR and TAF weather

Enter ICAO airport designator
Station Type Date Time Source
KPUB METAR 2022/01/27 23:53 UTC NOAA

KPUB 272353Z 03005KT 10SM FEW060 BKN075 BKN090 M02/M06 A3044 RMK AO2 SLP355 60007 T10221061 10000 21022 53019


Station Type Date Time Source
KPUB Decoded METAR 2022/01/27 23:53 UTC NOAA

PUEBLO MEMORIAL AIRPORT, CO, United States (KPUB) 38-17N 104-30W 1420M
Jan 27, 2022 - 06:53 PM EST / 2022.01.27 2353 UTC
Wind: from the NNE (030 degrees) at 6 MPH (5 KT):0
Visibility: 10 mile(s):0
Sky conditions: mostly cloudy
Temperature: 28.0 F (-2.2 C)
Windchill: 21 F (-6 C):1
Dew Point: 21.0 F (-6.1 C)
Relative Humidity: 74%
Pressure (altimeter): 30.44 in. Hg (1030 hPa)
Pressure tendency: 0.06 inches (1.9 hPa) higher than three hours ago
ob: KPUB 272353Z 03005KT 10SM FEW060 BKN075 BKN090 M02/M06 A3044 RMK AO2 SLP355 60007 T10221061 10000 21022 53019
cycle: 0

Station Type Date Time Source
KPUB TAF 2022/01/27 23:48 UTC NOAA

TAF
AMD KPUB 272247Z 2723/2818 07010KT P6SM VCSH FEW025 OVC045
FM280100 06013KT P6SM VCSH BKN050 OVC170
FM280300 27005KT P6SM BKN100
FM280500 28004KT P6SM SKC

Example: see airport list